Time;durP1;ratioP1;P1;durP2;ratioP2;P2;SDS_P1;SDS_P2;PMS_P1;PMS_P2;Temp;Humidity;BMP_temperature;BMP_pressure;BME280_temperature;BME280_humidity;BME280_pressure;Samples;Min_cycle;Max_cycle;Signal;HPM_P1;HPM_P2
2021/07/10 00:00:12;;;;;;;47.13;6.50;;;;;;;15.99;100.00;98432.91;5023809;28;20083;-70
2021/07/10 00:02:38;;;;;;;52.40;6.13;;;;;;;16.93;100.00;98430.13;5025599;28;20025;-71
2021/07/10 00:05:05;;;;;;;45.85;6.55;;;;;;;16.85;99.45;98427.09;5023634;28;20051;-70
2021/07/10 00:07:32;;;;;;;49.78;6.70;;;;;;;16.53;100.00;98424.56;5003606;28;21894;-70
2021/07/10 00:09:57;;;;;;;45.67;5.82;;;;;;;16.45;100.00;98410.97;5024940;28;20032;-70
2021/07/10 00:12:23;;;;;;;54.63;6.28;;;;;;;16.22;100.00;98415.78;5021290;28;20033;-70
2021/07/10 00:14:48;;;;;;;48.70;6.43;;;;;;;16.12;100.00;98412.84;5023449;28;20040;-71
2021/07/10 00:17:13;;;;;;;46.08;6.30;;;;;;;16.56;100.00;98408.59;5023386;28;20046;-70
2021/07/10 00:19:39;;;;;;;43.95;6.35;;;;;;;16.48;100.00;98408.16;5016407;28;20045;-72
2021/07/10 00:22:04;;;;;;;41.50;5.80;;;;;;;16.28;100.00;98398.78;5013031;28;20041;-70
2021/07/10 00:24:31;;;;;;;56.65;6.25;;;;;;;16.53;100.00;98403.50;5010396;28;20087;-71
2021/07/10 00:26:58;;;;;;;51.85;6.72;;;;;;;16.89;100.00;98394.34;5010223;28;20026;-70
2021/07/10 00:29:23;;;;;;;51.88;7.05;;;;;;;16.30;100.00;98408.31;5010623;28;20056;-70
2021/07/10 00:31:49;;;;;;;49.85;7.00;;;;;;;16.37;100.00;98399.09;5008087;28;20113;-70
2021/07/10 00:34:14;;;;;;;42.88;6.10;;;;;;;17.02;100.00;98399.72;5009757;28;20462;-71
2021/07/10 00:36:40;;;;;;;46.67;7.25;;;;;;;16.41;100.00;98398.94;5012654;28;20080;-70
2021/07/10 00:39:06;;;;;;;36.88;5.68;;;;;;;16.75;99.83;98392.53;5009959;28;20105;-71
2021/07/10 00:41:31;;;;;;;62.10;8.63;;;;;;;16.27;100.00;98391.84;5008279;28;20069;-70
2021/07/10 00:43:56;;;;;;;60.45;8.63;;;;;;;16.51;100.00;98389.56;5002341;28;20140;-69
2021/07/10 00:46:22;;;;;;;53.78;7.97;;;;;;;16.50;99.72;98393.13;4991615;28;20703;-70
2021/07/10 00:50:02;;;;;;;62.00;9.38;;;;;;;16.60;99.91;98391.66;5076075;27;20456;-70
2021/07/10 00:52:27;;;;;;;46.55;7.35;;;;;;;16.61;100.00;98385.44;5057574;28;20052;-69
2021/07/10 00:54:53;;;;;;;48.67;7.63;;;;;;;16.59;100.00;98376.78;5052748;28;20033;-71
2021/07/10 00:57:19;;;;;;;49.85;8.13;;;;;;;16.92;99.05;98370.47;5054329;28;20560;-71
2021/07/10 00:59:45;;;;;;;45.95;6.30;;;;;;;17.79;95.58;98379.09;5051218;28;20052;-71
2021/07/10 01:02:10;;;;;;;40.10;6.32;;;;;;;17.79;94.91;98374.69;5051595;28;20045;-70
2021/07/10 01:04:35;;;;;;;47.78;7.35;;;;;;;17.43;96.50;98378.72;5058575;28;20067;-72
2021/07/10 01:07:01;;;;;;;45.13;9.13;;;;;;;17.09;95.89;98375.56;5055133;28;20034;-71
2021/07/10 01:09:26;;;;;;;70.68;8.70;;;;;;;17.17;96.93;98368.94;5057502;28;20024;-70
2021/07/10 01:11:52;;;;;;;52.35;8.32;;;;;;;16.79;98.98;98364.22;5059819;28;20044;-70
2021/07/10 01:14:20;;;;;;;44.78;7.70;;;;;;;17.12;97.81;98370.06;5061844;28;20055;-70
2021/07/10 01:16:46;;;;;;;46.40;7.47;;;;;;;17.02;99.34;98368.97;5053353;28;20029;-69
2021/07/10 01:19:11;;;;;;;43.67;7.15;;;;;;;17.32;96.84;98368.00;5056668;28;20444;-70
2021/07/10 01:21:36;;;;;;;47.00;7.90;;;;;;;17.02;96.71;98366.31;5060113;28;20060;-71
2021/07/10 01:24:02;;;;;;;50.22;8.73;;;;;;;16.82;98.71;98366.63;5053217;28;20116;-69
2021/07/10 01:26:27;;;;;;;52.67;8.82;;;;;;;16.48;100.00;98369.50;5057123;28;20040;-71
2021/07/10 01:28:53;;;;;;;48.33;9.18;;;;;;;16.45;100.00;98376.75;5052645;28;20021;-70
2021/07/10 01:31:19;;;;;;;46.40;8.77;;;;;;;16.50;100.00;98361.53;5054910;28;20033;-69
2021/07/10 01:33:44;;;;;;;45.67;7.28;;;;;;;16.82;100.00;98367.50;5053494;28;20027;-71
2021/07/10 01:36:10;;;;;;;43.05;7.35;;;;;;;17.22;99.04;98366.88;5053827;28;20033;-70
2021/07/10 01:38:35;;;;;;;38.88;8.75;;;;;;;16.76;100.00;98371.38;5056175;28;20111;-71
2021/07/10 01:41:00;;;;;;;53.60;9.75;;;;;;;16.36;100.00;98375.53;5056326;28;20037;-71
2021/07/10 01:43:26;;;;;;;55.20;11.40;;;;;;;16.10;100.00;98382.28;5057866;28;20429;-71
2021/07/10 01:45:51;;;;;;;52.42;11.45;;;;;;;16.13;100.00;98380.31;5052515;28;20073;-71
2021/07/10 01:48:17;;;;;;;56.13;11.80;;;;;;;16.08;100.00;98382.41;5057295;28;20033;-71
2021/07/10 01:50:45;;;;;;;47.47;11.07;;;;;;;16.28;100.00;98375.94;5056196;28;20102;-72
2021/07/10 01:53:11;;;;;;;49.60;10.90;;;;;;;16.68;100.00;98370.97;5052858;28;20032;-70
2021/07/10 01:55:37;;;;;;;44.00;6.97;;;;;;;17.30;99.40;98375.16;5056342;28;20029;-71
2021/07/10 01:58:06;;;;;;;47.78;10.73;;;;;;;16.85;100.00;98372.59;5056991;28;20020;-71
2021/07/10 02:00:35;;;;;;;48.60;9.50;;;;;;;17.38;97.64;98367.59;5048659;28;20041;-70
2021/07/10 02:03:01;;;;;;;43.35;9.02;;;;;;;17.36;98.05;98364.22;5045526;28;20041;-70
2021/07/10 02:05:28;;;;;;;42.47;7.63;;;;;;;17.53;96.37;98357.88;5042251;28;20040;-70
2021/07/10 02:07:57;;;;;;;46.83;8.45;;;;;;;17.53;96.76;98353.47;5044507;28;20017;-70
2021/07/10 02:10:24;;;;;;;38.45;9.40;;;;;;;17.58;96.56;98349.69;5046023;28;20647;-71
2021/07/10 02:12:52;;;;;;;44.55;7.40;;;;;;;18.21;93.11;98349.06;5040744;28;20031;-72
2021/07/10 02:15:18;;;;;;;44.03;8.43;;;;;;;18.09;91.53;98341.97;5041535;28;20032;-71
2021/07/10 02:17:44;;;;;;;57.83;11.68;;;;;;;17.41;95.75;98342.84;5043183;28;20029;-71
2021/07/10 02:20:15;;;;;;;45.45;8.98;;;;;;;17.72;94.79;98339.09;5043774;28;20063;-72
2021/07/10 02:22:42;;;;;;;38.20;6.72;;;;;;;18.21;92.59;98333.22;5043076;28;20056;-72
2021/07/10 02:25:09;;;;;;;44.00;7.32;;;;;;;18.10;92.71;98330.47;5045929;28;20028;-70
2021/07/10 02:27:35;;;;;;;48.00;9.15;;;;;;;17.66;94.45;98331.56;5043430;28;20078;-70
2021/07/10 02:30:04;;;;;;;43.58;8.15;;;;;;;17.84;94.53;98325.06;5044877;28;20095;-70
2021/07/10 02:32:29;;;;;;;42.58;8.70;;;;;;;17.65;93.74;98329.88;5040606;28;20682;-71
2021/07/10 02:34:54;;;;;;;40.22;8.82;;;;;;;17.64;95.05;98323.72;5043766;28;20498;-71
2021/07/10 02:37:20;;;;;;;40.40;10.32;;;;;;;17.20;97.87;98334.50;5039922;28;20040;-70
2021/07/10 02:39:45;;;;;;;41.10;8.48;;;;;;;17.67;95.57;98330.63;5044563;28;20044;-70
2021/07/10 02:42:10;;;;;;;49.75;12.88;;;;;;;17.07;96.97;98335.25;5044623;28;21030;-73
2021/07/10 02:44:35;;;;;;;51.60;11.82;;;;;;;17.18;97.35;98328.47;5039088;28;20509;-72
2021/07/10 02:47:01;;;;;;;45.45;9.35;;;;;;;17.81;94.17;98322.66;5039362;28;20048;-70
2021/07/10 02:49:26;;;;;;;47.95;9.73;;;;;;;17.40;95.79;98326.16;5036242;28;20025;-71
2021/07/10 02:51:52;;;;;;;55.70;9.90;;;;;;;17.58;94.67;98323.31;5043701;28;20407;-71
2021/07/10 02:54:17;;;;;;;49.22;12.50;;;;;;;16.91;95.84;98326.63;5041222;28;20055;-71
2021/07/10 02:57:47;;;;;;;47.08;8.82;;;;;;;17.66;93.11;98321.00;5067331;28;21139;-71
2021/07/10 03:00:17;;;;;;;47.42;11.65;;;;;;;17.18;93.26;98323.19;5054052;28;20123;-70
2021/07/10 03:02:43;;;;;;;50.00;12.75;;;;;;;16.71;96.20;98328.66;5022922;28;20746;-69
2021/07/10 03:05:09;;;;;;;43.55;11.07;;;;;;;16.91;96.04;98326.63;5021429;28;20499;-72
2021/07/10 03:07:36;;;;;;;43.65;8.88;;;;;;;17.76;94.21;98332.66;5021055;28;20017;-70
2021/07/10 03:11:48;;;;;;;60.22;12.77;;;;;;;16.91;95.67;98339.78;5021278;27;20500;-70
2021/07/10 03:14:14;;;;;;;57.78;13.68;;;;;;;16.79;96.89;98329.97;5001279;28;20037;-71
2021/07/10 03:16:40;;;;;;;52.50;12.98;;;;;;;16.74;98.54;98333.75;4996171;28;20034;-70
2021/07/10 03:19:05;;;;;;;54.80;13.20;;;;;;;16.25;99.86;98335.78;4998180;28;20029;-70
2021/07/10 03:21:30;;;;;;;56.75;13.57;;;;;;;16.17;100.00;98344.16;4994599;28;20043;-71
2021/07/10 03:23:55;;;;;;;48.80;10.80;;;;;;;16.87;99.36;98344.41;4997716;28;20029;-70
2021/07/10 03:26:21;;;;;;;46.58;9.27;;;;;;;17.60;94.59;98342.50;4995061;28;20038;-70
2021/07/10 03:28:46;;;;;;;35.47;9.30;;;;;;;17.46;93.88;98346.88;5000589;28;20684;-73
2021/07/10 03:31:12;;;;;;;47.30;10.73;;;;;;;16.98;97.07;98343.72;4992422;28;20106;-70
2021/07/10 03:33:38;;;;;;;48.22;10.65;;;;;;;16.75;98.95;98340.69;4998094;28;20083;-70
2021/07/10 03:36:05;;;;;;;54.53;12.48;;;;;;;16.75;98.25;98345.94;4995285;28;20208;-70
2021/07/10 03:38:32;;;;;;;47.45;10.40;;;;;;;16.80;98.68;98347.44;5000362;28;20022;-69
2021/07/10 03:40:58;;;;;;;45.13;9.07;;;;;;;17.45;95.43;98339.91;4996421;28;20066;-69
2021/07/10 03:43:23;;;;;;;47.60;8.35;;;;;;;17.44;95.46;98340.88;4998739;28;20515;-70
2021/07/10 03:45:52;;;;;;;41.95;7.72;;;;;;;17.66;93.56;98342.97;4996656;28;20077;-71
2021/07/10 03:48:17;;;;;;;50.50;9.73;;;;;;;17.65;93.50;98340.44;4992153;28;20191;-70
2021/07/10 03:50:43;;;;;;;42.67;7.55;;;;;;;17.95;92.14;98337.59;4994884;28;20500;-70
2021/07/10 03:53:08;;;;;;;30.25;7.72;;;;;;;17.47;93.20;98343.28;4998775;28;20085;-73
2021/07/10 03:55:33;;;;;;;52.28;9.88;;;;;;;17.32;93.65;98339.00;4998832;28;20181;-70
2021/07/10 03:58:01;;;;;;;43.97;9.32;;;;;;;17.42;94.56;98337.44;4996063;28;20053;-71
2021/07/10 04:00:26;;;;;;;47.00;8.43;;;;;;;17.59;93.79;98340.81;4992478;28;20086;-70
2021/07/10 04:02:52;;;;;;;40.63;9.63;;;;;;;17.36;94.21;98339.66;4999538;28;20468;-71
2021/07/10 04:05:18;;;;;;;44.85;9.13;;;;;;;17.54;93.55;98343.75;4995621;28;20050;-70
2021/07/10 04:07:43;;;;;;;48.03;8.80;;;;;;;17.55;93.54;98340.16;4995452;28;20124;-71
2021/07/10 04:10:10;;;;;;;41.13;8.85;;;;;;;17.85;91.54;98341.81;4997988;28;20760;-70
2021/07/10 04:12:36;;;;;;;59.63;10.05;;;;;;;18.21;89.71;98335.03;4998518;28;20622;-71
2021/07/10 04:15:01;;;;;;;40.70;8.30;;;;;;;18.16;88.41;98335.34;5001462;28;20026;-71
2021/07/10 04:17:28;;;;;;;45.30;12.95;;;;;;;17.57;90.68;98342.69;4999579;28;20658;-70
2021/07/10 04:19:54;;;;;;;42.92;9.05;;;;;;;17.89;91.86;98340.66;4997403;28;20061;-70
2021/07/10 04:22:19;;;;;;;38.80;7.93;;;;;;;19.16;83.62;98341.72;4982106;28;20038;-71
2021/07/10 04:24:44;;;;;;;37.85;7.90;;;;;;;19.09;83.69;98339.63;4981864;28;20378;-71
2021/07/10 04:27:10;;;;;;;46.05;9.55;;;;;;;18.34;86.87;98350.88;4986194;28;20456;-71
2021/07/10 04:29:35;;;;;;;36.30;7.47;;;;;;;18.63;85.78;98344.47;4987988;28;20609;-71
2021/07/10 04:32:00;;;;;;;47.97;10.88;;;;;;;18.48;85.26;98341.09;4986034;28;20047;-72
2021/07/10 04:34:26;;;;;;;44.42;8.80;;;;;;;18.97;84.01;98341.34;4982636;28;20037;-72
2021/07/10 04:36:51;;;;;;;39.22;9.05;;;;;;;18.87;83.74;98331.38;4983894;28;20066;-72
2021/07/10 04:39:16;;;;;;;42.25;9.15;;;;;;;19.04;81.73;98342.59;4984479;28;20018;-71
2021/07/10 04:41:42;;;;;;;47.25;9.35;;;;;;;19.13;79.60;98343.75;4980978;28;20162;-71
2021/07/10 04:44:07;;;;;;;40.65;8.23;;;;;;;19.27;81.47;98336.50;4985877;28;20125;-71
2021/07/10 04:46:32;;;;;;;38.38;9.70;;;;;;;18.73;80.32;98333.28;4982110;28;20046;-71
2021/07/10 04:48:58;;;;;;;45.05;9.18;;;;;;;18.19;85.08;98334.28;4985859;28;20034;-71
2021/07/10 04:51:23;;;;;;;47.67;11.00;;;;;;;17.71;86.58;98338.22;4987417;28;20042;-70
2021/07/10 04:53:49;;;;;;;51.80;12.05;;;;;;;17.08;90.22;98339.59;4983985;28;20031;-71
2021/07/10 04:56:14;;;;;;;47.00;11.30;;;;;;;16.89;93.16;98341.66;4978820;28;20074;-72
2021/07/10 04:58:43;;;;;;;48.15;12.20;;;;;;;17.04;92.12;98331.94;4981215;28;20387;-72
2021/07/10 05:01:09;;;;;;;49.55;12.15;;;;;;;16.62;94.80;98329.22;4979645;28;20069;-70
2021/07/10 05:03:36;;;;;;;40.10;10.23;;;;;;;16.85;95.10;98334.88;4969779;28;20121;-70
2021/07/10 05:06:02;;;;;;;42.65;10.23;;;;;;;17.14;92.01;98320.75;4978973;28;20054;-70
2021/07/10 05:08:27;;;;;;;40.95;11.40;;;;;;;17.14;91.58;98320.75;4988169;28;20037;-69
2021/07/10 05:10:52;;;;;;;39.22;10.00;;;;;;;17.32;91.12;98318.75;4984731;28;20042;-70
2021/07/10 05:13:18;;;;;;;32.72;10.20;;;;;;;17.34;91.22;98316.84;4988767;28;20192;-71
2021/07/10 05:15:43;;;;;;;27.38;7.75;;;;;;;17.64;90.82;98320.25;4986826;28;20082;-70
2021/07/10 05:18:09;;;;;;;25.83;7.57;;;;;;;17.81;90.55;98320.03;4989132;28;20472;-73
2021/07/10 05:20:34;;;;;;;36.33;7.95;;;;;;;18.45;86.61;98306.97;4983048;28;20026;-72
2021/07/10 05:22:59;;;;;;;35.72;7.85;;;;;;;18.03;88.44;98308.06;4981997;28;20554;-71
2021/07/10 05:25:25;;;;;;;34.83;8.02;;;;;;;17.87;88.95;98313.53;4984374;28;20058;-70
2021/07/10 05:27:50;;;;;;;32.17;8.05;;;;;;;17.86;89.52;98319.72;4980928;28;20021;-71
2021/07/10 05:30:17;;;;;;;32.92;10.00;;;;;;;17.53;90.86;98320.94;4982337;28;20010;-71
2021/07/10 05:33:33;;;;;;;39.67;8.10;;;;;;;18.50;86.09;98310.13;5046294;28;20510;-71
2021/07/10 05:35:58;;;;;;;39.08;8.85;;;;;;;18.27;87.19;98317.00;5046834;28;20060;-70
2021/07/10 05:38:24;;;;;;;40.58;6.95;;;;;;;19.17;83.05;98318.75;5053694;28;20029;-69
2021/07/10 05:40:49;;;;;;;38.13;9.00;;;;;;;18.53;84.64;98311.72;5053894;28;20036;-70
2021/07/10 05:43:15;;;;;;;33.22;6.93;;;;;;;18.92;83.41;98317.88;5056389;28;20039;-71
2021/07/10 05:45:40;;;;;;;37.20;8.95;;;;;;;18.86;82.55;98319.16;5060719;28;20097;-72
2021/07/10 05:48:07;;;;;;;31.00;6.53;;;;;;;19.43;80.26;98323.03;5079293;28;20020;-73
2021/07/10 05:50:33;;;;;;;39.88;11.10;;;;;;;17.92;84.25;98328.09;5075225;28;21132;-71
2021/07/10 05:52:58;;;;;;;34.28;7.28;;;;;;;18.12;87.39;98331.19;5077659;28;20031;-72
2021/07/10 05:55:24;;;;;;;32.25;6.63;;;;;;;19.23;81.01;98326.28;5076049;28;20027;-72
2021/07/10 05:57:49;;;;;;;30.00;7.15;;;;;;;18.56;84.54;98335.28;5078417;28;20306;-72
2021/07/10 06:00:15;;;;;;;40.85;8.68;;;;;;;18.96;81.38;98337.84;5075690;28;20032;-73
2021/07/10 06:02:40;;;;;;;32.38;7.30;;;;;;;19.34;79.33;98336.94;5091393;28;20688;-71
2021/07/10 06:05:08;;;;;;;35.35;7.60;;;;;;;19.25;80.28;98333.13;5074093;28;20028;-71
2021/07/10 06:07:33;;;;;;;28.23;6.65;;;;;;;19.80;77.38;98338.06;5073720;28;20082;-72
2021/07/10 06:09:59;;;;;;;27.75;5.90;;;;;;;19.86;77.11;98339.44;5072529;28;20024;-69
2021/07/10 06:12:24;;;;;;;36.28;9.68;;;;;;;19.04;79.66;98343.44;5077558;28;20040;-73
2021/07/10 06:14:50;;;;;;;28.00;6.15;;;;;;;19.24;80.18;98328.81;5077409;28;20017;-69
2021/07/10 06:17:15;;;;;;;28.08;6.10;;;;;;;19.22;80.49;98340.44;5076942;28;20047;-71
2021/07/10 06:20:43;;;;;;;36.20;8.82;;;;;;;18.64;80.73;98335.59;5043627;28;20917;-70
2021/07/10 06:23:08;;;;;;;39.65;9.05;;;;;;;18.80;81.29;98334.53;5019826;28;20034;-70
2021/07/10 06:25:36;;;;;;;33.22;9.20;;;;;;;18.49;82.48;98340.16;5020622;28;20411;-70
2021/07/10 06:28:03;;;;;;;34.90;9.75;;;;;;;18.89;80.83;98344.50;5020032;28;20547;-69
2021/07/10 06:30:29;;;;;;;32.35;6.63;;;;;;;19.37;79.45;98342.00;5018785;28;20040;-70
2021/07/10 06:32:54;;;;;;;52.63;7.75;;;;;;;20.27;75.33;98336.31;5018655;28;20033;-69
2021/07/10 06:35:20;;;;;;;46.33;7.40;;;;;;;19.62;77.85;98337.59;5016906;28;20121;-71
2021/07/10 06:37:45;;;;;;;37.15;6.72;;;;;;;19.96;76.35;98335.13;5018563;28;20072;-69
2021/07/10 06:40:13;;;;;;;37.83;9.07;;;;;;;19.42;78.27;98342.50;5018902;28;20113;-70
2021/07/10 06:42:39;;;;;;;34.08;7.65;;;;;;;19.31;78.63;98341.59;5021673;28;20044;-70
2021/07/10 06:45:06;;;;;;;38.53;7.10;;;;;;;19.85;77.00;98338.59;5018540;28;20034;-70
2021/07/10 06:47:32;;;;;;;36.13;6.10;;;;;;;20.36;74.77;98345.38;5019228;28;20123;-71
2021/07/10 06:49:57;;;;;;;35.90;7.22;;;;;;;19.86;76.31;98350.00;5019184;28;20494;-69
2021/07/10 06:54:09;;;;;;;37.03;6.40;;;;;;;19.54;77.94;98348.72;5061558;28;20421;-73
2021/07/10 06:56:35;;;;;;;34.88;7.75;;;;;;;19.37;77.83;98344.66;5047355;28;20052;-72
2021/07/10 06:59:00;;;;;;;37.08;10.18;;;;;;;18.81;81.74;98352.97;5031273;28;20122;-69
2021/07/10 07:01:27;;;;;;;41.50;7.80;;;;;;;18.89;81.95;98347.16;5031457;28;20140;-71
2021/07/10 07:03:53;;;;;;;34.83;8.65;;;;;;;18.41;84.49;98344.25;5032920;28;20025;-71
2021/07/10 07:06:19;;;;;;;37.20;8.68;;;;;;;18.23;85.33;98349.84;5031603;28;20029;-70
2021/07/10 07:08:44;;;;;;;39.50;10.23;;;;;;;18.50;82.21;98354.19;5031439;28;20039;-71
2021/07/10 07:11:11;;;;;;;29.77;7.40;;;;;;;18.91;81.61;98352.34;5030459;28;20056;-71
2021/07/10 07:13:36;;;;;;;42.80;10.45;;;;;;;18.35;83.63;98352.59;5028682;28;20483;-71
2021/07/10 07:16:02;;;;;;;33.03;8.45;;;;;;;18.33;85.68;98354.50;5032703;28;20049;-70
2021/07/10 07:18:27;;;;;;;33.53;6.47;;;;;;;19.25;81.01;98351.66;5032570;28;20029;-69
2021/07/10 07:20:53;;;;;;;30.25;6.10;;;;;;;19.40;80.69;98347.06;5029994;28;20099;-70
2021/07/10 07:23:18;;;;;;;30.70;6.30;;;;;;;19.39;80.38;98345.38;5030203;28;20025;-70
2021/07/10 07:25:43;;;;;;;34.58;7.93;;;;;;;19.62;79.60;98342.88;5030994;28;20033;-70
2021/07/10 07:28:09;;;;;;;35.67;7.13;;;;;;;19.35;80.20;98351.00;5031169;28;20032;-69
2021/07/10 07:30:34;;;;;;;28.67;5.82;;;;;;;20.41;75.79;98354.66;5030798;28;20049;-70
2021/07/10 07:33:00;;;;;;;38.45;8.52;;;;;;;19.20;80.60;98343.19;5032313;28;20029;-71
2021/07/10 07:35:25;;;;;;;54.92;9.90;;;;;;;19.25;78.97;98345.53;5028750;28;20048;-72
2021/07/10 07:37:51;;;;;;;37.53;9.73;;;;;;;18.55;82.32;98345.97;5030692;28;20014;-70
2021/07/10 07:40:16;;;;;;;37.40;7.50;;;;;;;19.12;81.08;98340.25;5029412;28;20167;-71
2021/07/10 07:42:44;;;;;;;33.50;8.73;;;;;;;18.47;84.42;98335.91;5030945;28;20403;-71
2021/07/10 07:45:10;;;;;;;32.42;6.10;;;;;;;19.16;82.84;98335.59;5028610;28;20032;-70
2021/07/10 07:47:37;;;;;;;35.58;6.22;;;;;;;20.09;77.80;98324.47;5029863;28;20843;-72
2021/07/10 07:50:05;;;;;;;35.90;7.47;;;;;;;19.81;78.83;98332.69;5031046;28;20112;-73
2021/07/10 07:52:31;;;;;;;44.78;8.05;;;;;;;19.43;79.82;98328.34;5030264;28;20060;-70
2021/07/10 07:54:56;;;;;;;39.53;9.25;;;;;;;18.71;84.62;98322.84;5032063;28;20060;-71
2021/07/10 07:57:48;;;;;;;39.83;7.95;;;;;;;19.01;83.35;98314.56;5078601;27;20503;-70
2021/07/10 08:00:19;;;;;;;29.38;5.25;;;;;;;20.17;77.96;98314.16;5077947;27;20103;-71
2021/07/10 08:02:44;;;;;;;41.75;8.68;;;;;;;19.31;79.42;98323.91;5027096;28;20024;-70
2021/07/10 08:05:10;;;;;;;37.67;6.18;;;;;;;19.77;80.63;98315.31;5028000;28;20049;-70
2021/07/10 08:07:36;;;;;;;35.08;7.63;;;;;;;19.48;79.54;98313.94;5027179;28;20091;-72
2021/07/10 08:10:02;;;;;;;26.60;5.78;;;;;;;20.56;77.38;98310.25;5024740;28;20806;-73
2021/07/10 08:12:27;;;;;;;33.33;7.53;;;;;;;19.60;80.76;98313.03;5024495;28;20045;-72
2021/07/10 08:14:52;;;;;;;29.27;6.00;;;;;;;20.59;77.61;98317.16;5027820;28;20028;-74
2021/07/10 08:17:18;;;;;;;30.52;7.25;;;;;;;19.71;77.01;98309.63;5027565;28;20041;-71
2021/07/10 08:19:43;;;;;;;33.67;6.15;;;;;;;21.06;76.54;98309.09;5027515;28;20140;-71
2021/07/10 08:22:09;;;;;;;30.90;6.07;;;;;;;21.28;73.99;98303.78;5025610;28;20128;-71
2021/07/10 08:24:34;;;;;;;26.98;5.70;;;;;;;20.58;75.23;98310.16;5026456;28;20029;-72
2021/07/10 08:26:59;;;;;;;35.60;6.13;;;;;;;21.07;73.57;98306.34;5024986;28;20514;-71
2021/07/10 08:29:25;;;;;;;40.75;6.90;;;;;;;20.09;76.42;98313.88;5023973;28;20033;-71
2021/07/10 08:31:50;;;;;;;26.60;5.85;;;;;;;20.23;78.20;98319.81;5025314;28;20653;-72
2021/07/10 08:34:16;;;;;;;33.42;6.43;;;;;;;19.29;79.45;98309.97;5027226;28;20057;-72
2021/07/10 08:36:41;;;;;;;27.73;6.07;;;;;;;19.07;81.62;98314.13;5023374;28;20037;-72
2021/07/10 08:39:07;;;;;;;32.10;5.60;;;;;;;20.74;76.32;98309.84;5024582;28;20045;-72
2021/07/10 08:41:34;;;;;;;35.97;5.57;;;;;;;21.32;73.70;98312.31;5024588;28;20041;-71
2021/07/10 08:43:59;;;;;;;39.13;5.97;;;;;;;19.76;79.08;98311.00;5026697;28;20037;-71
2021/07/10 08:46:25;;;;;;;30.38;5.70;;;;;;;19.89;79.95;98304.75;5024199;28;20088;-71
2021/07/10 08:48:50;;;;;;;36.58;5.70;;;;;;;20.60;76.87;98302.91;5026251;28;20478;-70
2021/07/10 08:51:16;;;;;;;29.25;4.97;;;;;;;20.74;74.46;98307.19;5025829;28;20110;-71
2021/07/10 08:53:45;;;;;;;28.15;5.20;;;;;;;19.60;80.99;98302.47;5024350;28;20030;-70
2021/07/10 08:56:11;;;;;;;26.52;5.20;;;;;;;19.25;80.98;98287.34;5025799;28;20546;-71
2021/07/10 08:58:37;;;;;;;32.35;5.50;;;;;;;20.49;76.64;98301.09;5021636;28;20029;-70
2021/07/10 09:01:05;;;;;;;30.08;5.40;;;;;;;19.92;78.95;98297.44;5028670;28;20068;-70
2021/07/10 09:03:31;;;;;;;32.58;5.93;;;;;;;19.26;79.36;98295.19;5025575;28;20052;-71
2021/07/10 09:05:56;;;;;;;33.67;5.70;;;;;;;19.35;79.28;98292.81;5024954;28;20096;-71
2021/07/10 09:08:23;;;;;;;27.05;5.15;;;;;;;19.41;83.96;98290.56;5013258;28;20133;-70
2021/07/10 09:11:28;;;;;;;36.58;5.57;;;;;;;19.88;88.11;98289.88;5009227;28;20079;-73
2021/07/10 09:13:55;;;;;;;71.07;9.48;;;;;;;20.41;89.90;98283.13;5003360;28;20827;-69
2021/07/10 09:16:29;;;;;;;53.22;7.47;;;;;;;21.20;82.53;98269.06;5000365;28;20056;-69
2021/07/10 09:19:01;;;;;;;51.00;8.13;;;;;;;21.06;80.88;98274.63;5009624;28;20065;-72
2021/07/10 09:21:46;;;;;;;46.05;6.28;;;;;;;21.30;80.94;98264.72;5005744;28;20045;-72
2021/07/10 09:24:17;;;;;;;53.50;7.20;;;;;;;21.80;78.25;98260.72;5009491;28;20422;-70
2021/07/10 09:26:45;;;;;;;35.72;5.50;;;;;;;21.77;76.86;98263.63;5007521;28;20034;-71
2021/07/10 09:29:20;;;;;;;54.35;15.15;;;;;;;20.85;81.48;98264.78;5008315;28;20021;-72
2021/07/10 09:31:55;;;;;;;250.85;128.10;;;;;;;20.18;82.06;98250.50;5008443;28;20129;-72
2021/07/10 09:34:32;;;;;;;116.88;51.88;;;;;;;19.77;81.89;98257.09;5008236;28;20033;-71
2021/07/10 09:37:00;;;;;;;41.65;8.18;;;;;;;20.11;81.03;98254.56;5008947;28;20100;-71
2021/07/10 09:39:32;;;;;;;307.23;166.38;;;;;;;20.24;81.72;98254.47;5011593;28;20025;-70
2021/07/10 09:41:59;;;;;;;64.60;9.95;;;;;;;20.31;82.06;98244.22;5005686;28;20383;-71
2021/07/10 09:44:40;;;;;;;59.95;14.25;;;;;;;20.83;78.01;98229.59;5008181;28;20030;-71
2021/07/10 09:47:06;;;;;;;46.55;10.48;;;;;;;20.88;78.44;98227.41;5007959;28;20029;-72
2021/07/10 09:49:34;;;;;;;47.92;13.07;;;;;;;22.09;74.53;98221.94;5008391;28;20029;-71
2021/07/10 09:52:02;;;;;;;47.38;11.48;;;;;;;22.55;72.12;98229.63;5008271;28;20037;-71
2021/07/10 09:54:30;;;;;;;48.55;10.93;;;;;;;22.35;72.39;98229.53;5005863;28;20026;-71
2021/07/10 09:57:07;;;;;;;59.15;11.43;;;;;;;22.58;71.38;98222.22;5006492;28;20506;-71
2021/07/10 09:59:37;;;;;;;54.42;10.10;;;;;;;22.14;71.06;98217.06;5006248;28;20025;-72
2021/07/10 10:02:10;;;;;;;40.97;7.40;;;;;;;21.61;70.85;98211.81;5009866;28;20127;-71
2021/07/10 10:04:36;;;;;;;36.42;8.05;;;;;;;22.01;71.91;98207.63;5006375;28;20044;-73
2021/07/10 10:07:07;;;;;;;37.95;6.30;;;;;;;22.16;72.44;98213.44;5006525;28;20172;-71
2021/07/10 10:09:33;;;;;;;47.95;6.97;;;;;;;20.89;72.53;98207.88;5006986;28;20022;-72
2021/07/10 10:12:05;;;;;;;59.80;9.95;;;;;;;21.92;71.58;98203.94;5008112;28;20045;-70
2021/07/10 10:16:15;;;;;;;61.20;8.73;;;;;;;22.67;69.47;98205.47;5045326;27;20406;-71
2021/07/10 10:18:44;;;;;;;44.72;5.78;;;;;;;22.37;68.05;98206.34;5035466;28;20044;-70
2021/07/10 10:21:09;;;;;;;53.58;8.10;;;;;;;22.93;66.84;98196.19;5033384;28;20069;-71
2021/07/10 10:23:35;;;;;;;54.67;8.88;;;;;;;23.11;68.17;98194.56;5036565;28;20079;-70
2021/07/10 10:26:02;;;;;;;63.35;9.38;;;;;;;23.31;67.31;98190.09;5033198;28;20123;-71
2021/07/10 10:28:31;;;;;;;54.97;8.63;;;;;;;23.44;66.85;98184.50;5030919;28;20029;-70
2021/07/10 10:30:57;;;;;;;64.22;8.70;;;;;;;22.76;65.20;98185.22;5033667;28;20072;-71
2021/07/10 10:33:24;;;;;;;56.22;8.00;;;;;;;22.99;66.94;98187.63;5032345;28;20057;-71
2021/07/10 10:35:53;;;;;;;49.58;6.85;;;;;;;21.62;68.23;98183.47;5031759;28;20039;-70
2021/07/10 10:38:19;;;;;;;45.65;6.90;;;;;;;21.87;69.48;98176.91;5034485;28;20059;-71
2021/07/10 10:40:47;;;;;;;43.97;6.68;;;;;;;23.14;65.98;98180.13;5033422;28;20108;-71
2021/07/10 10:43:16;;;;;;;33.85;6.20;;;;;;;23.36;66.45;98181.69;5030292;28;20640;-71
2021/07/10 10:45:43;;;;;;;37.72;6.03;;;;;;;23.64;64.57;98175.53;5031817;28;20555;-70
2021/07/10 10:48:09;;;;;;;38.05;6.20;;;;;;;23.90;63.45;98174.97;5029038;28;20111;-70
2021/07/10 10:50:40;;;;;;;34.88;5.43;;;;;;;23.35;62.54;98169.38;5034900;28;20406;-69
2021/07/10 10:53:07;;;;;;;50.03;6.53;;;;;;;23.12;63.33;98171.44;5034905;28;20048;-71
2021/07/10 10:55:33;;;;;;;55.50;7.13;;;;;;;22.03;63.20;98171.16;5031424;28;20068;-69
2021/07/10 10:58:13;;;;;;;49.30;6.68;;;;;;;22.73;65.28;98160.72;5031256;28;20534;-72
2021/07/10 11:00:43;;;;;;;33.17;5.20;;;;;;;23.48;63.70;98159.28;5032165;28;20045;-72
2021/07/10 11:05:59;;;;;;;43.63;5.78;;;;;;;23.73;62.35;98152.53;5070749;27;21006;-71
2021/07/10 11:08:36;;;;;;;42.72;5.78;;;;;;;23.82;61.08;98143.72;5029524;28;20045;-72
2021/07/10 11:11:01;;;;;;;45.67;6.43;;;;;;;23.77;62.13;98147.78;5032068;28;20562;-71
2021/07/10 11:13:32;;;;;;;47.77;6.73;;;;;;;23.38;60.01;98132.69;5031262;28;20095;-71
2021/07/10 11:16:22;;;;;;;47.75;6.65;;;;;;;23.59;60.52;98129.84;5031699;28;20275;-71
2021/07/10 11:19:03;;;;;;;48.75;6.63;;;;;;;23.82;60.45;98129.56;5030265;28;20041;-72
2021/07/10 11:21:34;;;;;;;33.33;5.40;;;;;;;24.07;61.09;98132.59;5035419;28;20422;-72
2021/07/10 11:26:56;;;;;;;37.85;5.55;;;;;;;24.20;58.22;98127.75;5033493;28;20125;-72
2021/07/10 11:29:24;;;;;;;40.85;6.00;;;;;;;24.49;58.75;98119.66;5034564;28;20025;-74
2021/07/10 11:31:53;;;;;;;55.63;7.10;;;;;;;24.52;59.77;98107.84;5034528;28;20046;-73
2021/07/10 11:34:20;;;;;;;51.45;6.85;;;;;;;24.52;58.38;98105.16;5036171;28;20126;-72